This is the latest recevied weather packets stored in our database for station/object NO4D. If no packets are shown the sender has not sent any weather packets the latest 10 day(s).
| Time | Temp. | Humidity | Pressure | Rain* | Wind** | Luminosity | Snow |
|---|---|---|---|---|---|---|---|
| 1777566640 | 20.56° C | 77% | 1011.4 hPa | 0 mm | - | 271 W/m² | - |
| 1777566337 | 20.56° C | 74% | 1011.6 hPa | 0 mm | - | 840 W/m² | - |
| 1777566035 | 20° C | 78% | 1011.6 hPa | 0 mm | - | 317 W/m² | - |
| 1777565730 | 20.56° C | 80% | 1011.6 hPa | 0 mm | - | 759 W/m² | - |
| 1777565427 | 20° C | 78% | 1011.8 hPa | 0 mm | - | 295 W/m² | - |
| 1777565123 | 20° C | 79% | 1011.4 hPa | 0 mm | - | 787 W/m² | - |
| 1777564819 | 20° C | 79% | 1011.7 hPa | 0 mm | - | 310 W/m² | - |
| 1777564514 | 20.56° C | 78% | 1011.6 hPa | 0 mm | - | 605 W/m² | - |
| 1777564210 | 19.44° C | 80% | 1011.8 hPa | 0 mm | - | 920 W/m² | - |
| 1777563906 | 20° C | 76% | 1012.1 hPa | 0 mm | - | 275 W/m² | - |
| 1777563603 | 20° C | 79% | 1012 hPa | 0 mm | - | 266 W/m² | - |
| 1777563302 | 20.56° C | 77% | 1011.8 hPa | 0 mm | - | 508 W/m² | - |
| 1777562999 | 20° C | 78% | 1011.8 hPa | 0 mm | - | 801 W/m² | - |
| 1777562695 | 20° C | 80% | 1011.8 hPa | 0 mm | - | 823 W/m² | - |
| 1777562394 | 19.44° C | 80% | 1012.1 hPa | 0 mm | - | 225 W/m² | - |
| 1777562090 | 19.44° C | 81% | 1011.7 hPa | 0 mm | - | 723 W/m² | - |
| 1777561788 | 19.44° C | 83% | 1011.7 hPa | 0 mm | - | 775 W/m² | - |
| 1777561483 | 18.89° C | 83% | 1011.8 hPa | 0 mm | - | 347 W/m² | - |
| 1777561179 | 18.89° C | 83% | 1011.6 hPa | 0 mm | - | 436 W/m² | - |
| 1777560873 | 18.89° C | 82% | 1011.6 hPa | 0 mm | - | 297 W/m² | - |
| 1777560571 | 18.33° C | 84% | 1011.5 hPa | 0 mm | - | 807 W/m² | - |
| 1777560269 | 18.33° C | 85% | 1011.3 hPa | 0 mm | - | 275 W/m² | - |
| 1777559967 | 18.33° C | 87% | 1011.3 hPa | 0 mm | - | 324 W/m² | - |
| 1777559667 | 18.33° C | 87% | 1011.4 hPa | 0 mm | - | 280 W/m² | - |
| 1777559365 | 17.78° C | 90% | 1010.9 hPa | 0 mm | - | 482 W/m² | - |
* Rain latest hour (hover to see other rain measurements)
** Current wind speed in m/s (hover to see current wind gust speed)